Petawawa Airport
CYWA : now visible

Airfield :











YOU CAN JOIN US ON...

 
LOGIN :

Register | Disclaimer

   EN    FR    IT 

 









Legend :    VFR   Marginal VFR   IFR   Intensive IFR   Very Intensive IFR
Visi :
Ceiling :
>= 8 km
>= 3000ft
5 to 8 km
1000 to 3000 ft
1500m to 5 km
500 to 1000 ft
800 to 1500m
200 to 500 ft
< 800m
< 200 ft
Symbols :   Thunderstorms  Fog  Heavy snow  Heavy precipitations  Wind > 20 kt






- Airport Elevation : 427 ft
- IATA code : YWA


CYWA - Petawawa

CURRENT METAR :
  • 282200Z 31014G28KT 3SM -FZRA BR FEW015 OVC025 M00/M03 A2928 RMK ST2SC6 DENSITY ALT -562FT PRESRR SLP921

EXPIRED METARs :
  • 282100Z 26019G30KT 4SM -RA BKN028 OVC035 02/M01 A2921 RMK SC6SC2 DENSITY ALT -136FT PRESRR SLP894
  • 282000Z 28019KT 4SM BR OVC022 06/02 A2909 RMK SC8 DENSITY ALT 516FT PRESRR OBS TAKEN +16 SLP854
  • 281900Z 14005KT 4SM BR OVC019 09/08 A2901 RMK SC8 DENSITY ALT 942FT SLP826
  • 281800Z 12009G15KT 2SM BR SCT004 OVC014 07/07 A2905 RMK ST3SC5 DENSITY ALT 645FT SLP842

TAF AMD TAF CYWA
Valid from the 28 at 22:00 until the 29 at 18:00 UTC


282207Z 2822/2918 31015G25KT 3SM -FZRA BR OVC015
TEMPO 2822/2823 6SM -SHSN OVC025
FM282300 31015G25KT 2SM -SHSN OVC015
TEMPO 2823/2901 6SM -SHSN OVC025
FM290100 31015G25KT 6SM -SHSN BKN030
FM291000 31010KT P6SM SCT040
FM291500 31012G22KT P6SM SCT040 RMK NXT FCST BY 290000Z
CZYZ FIR / North America



MET'MAP, your aeronautical weather chart ! - Copyright ORBIFLY December 2007 - Disclaimer

ORBIFLY MET'MAP TEAM :

Programming & Development : Alexandra Zaïnal
Original concept : Baudouin d'Aumeries
Technical & hardware support : Manuel Goepfert
Assistance : Marc-Olivier Méhu




SOURCES & CREDITS :

   NOAA       Earth
Advisory